Terminal Aerodrome Forecast
Issued by NWS Grand Forks, ND

Home | Current Version | Previous Version | Text Only | Print | Product List | Glossary Off
Versions: 1 2 3 4 5 6 7 8 9 10 11 12 13 14 15 16 17 18

000
FTUS43 KFGF 220438 AAC
TAFFAR
TAF AMD
KFAR 220438Z 2205/2224 VRB03KT 1/2SM FG OVC003
      TEMPO 2205/2208 1/4SM FG
     FM220800 00000KT 1/4SM FG OVC003
     FM221200 VRB03KT P6SM OVC003
     FM222000 28005KT P6SM OVC008=

USA.gov is the U.S. government's official web portal to all federal, state and local government web resources and services.